»·PEaware :: DAL1914 KSLC-KBOI

DAL1914 :: KSLC-KBOI

FLIGHT INFORMATION

Flight Status: Arrived
Operator:
Delta Air Lines
More flights by this operator :: More flights under this callsign
Pilot: Joe P. (13940)
Aircraft: BOEING 737-700
(B737)
More flights by this aircraft type
Origin: KSLC Salt Lake City Intl
United States
Destination: KBOI Boise Air Terminal/Gowen
United States
More flights between these airports :: More routes between these airports
Route: CGULL1 TWF BROPH SPUUD3
File this flight plan on PilotEdge
Remarks: KTWF -PBN / A1B1C1D1L1O1S1 NAV / RNVD1E2A1 DOF / 180816 REG / N389DA RVR / 200 PER / C
Altitude:
(Current/Filed)
320ft
Speed:
(Current/Filed)
465kts
Departed: 15-Aug-18 07:53 PM
Arrived: 15-Aug-18 08:37 PM
Distance/Time
Traveled:
252nm/0:44
Distance/Time
To Go:
Arrived

Flight Plot

Page will automatically refresh every two minutes.

Flight plan parsing failed; only flown route is shown


Map Options




Map Legend


Flown Route
Filed Route
Departure Airport
Arrival Airport
Navaid (VOR, NDB)
Fix

Horizontal Profiles

Position Reports

Time Latitude Longitude Heading Altitude Ground
Speed
15-Aug-18 19:21 40.789075 -111.985536 130 4235ft 0kts
15-Aug-18 19:22 40.789075 -111.985536 130 4235ft 0kts
15-Aug-18 19:23 40.789075 -111.985536 130 4235ft 0kts
15-Aug-18 19:24 40.789075 -111.985536 130 4235ft 0kts
15-Aug-18 19:25 40.789075 -111.985536 130 4235ft 0kts
15-Aug-18 19:26 40.789075 -111.985536 130 4235ft 0kts
15-Aug-18 19:27 40.789075 -111.985536 130 4235ft 0kts
15-Aug-18 19:28 40.789075 -111.985536 130 4235ft 0kts
15-Aug-18 19:29 40.789075 -111.985536 130 4235ft 0kts
15-Aug-18 19:30 40.789075 -111.985536 130 4235ft 0kts
15-Aug-18 19:31 40.789075 -111.985536 130 4235ft 0kts
15-Aug-18 19:32 40.789075 -111.985536 130 4235ft 0kts
15-Aug-18 19:33 40.789075 -111.985536 130 4235ft 0kts
15-Aug-18 19:34 40.789075 -111.985536 130 4235ft 0kts
15-Aug-18 19:35 40.789075 -111.985536 130 4235ft 0kts
15-Aug-18 19:36 40.789075 -111.985536 130 4235ft 0kts
15-Aug-18 19:37 40.789075 -111.985536 130 4235ft 0kts
15-Aug-18 19:38 40.789075 -111.985536 130 4235ft 0kts
15-Aug-18 19:39 40.789472 -111.986046 150 4235ft 2kts
15-Aug-18 19:40 40.789827 -111.985926 238 4235ft 0kts
15-Aug-18 19:41 40.789827 -111.985926 238 4235ft 0kts
15-Aug-18 19:42 40.789827 -111.985926 238 4235ft 0kts
15-Aug-18 19:43 40.789826 -111.985927 238 4235ft 0kts
15-Aug-18 19:44 40.789825 -111.985929 238 4235ft 0kts
15-Aug-18 19:45 40.789819 -111.985941 238 4235ft 1kts
15-Aug-18 19:46 40.791385 -111.987316 314 4235ft 6kts
15-Aug-18 19:47 40.791269 -111.990427 265 4235ft 9kts
15-Aug-18 19:48 40.790761 -111.994966 213 4235ft 12kts
15-Aug-18 19:49 40.785870 -111.994593 175 4235ft 21kts
15-Aug-18 19:50 40.780091 -111.994372 180 4235ft 22kts
15-Aug-18 19:51 40.775685 -111.993916 179 4235ft 10kts
15-Aug-18 19:52 40.775357 -111.994117 233 4235ft 0kts
15-Aug-18 19:53 40.775749 -111.995626 356 4235ft 0kts
15-Aug-18 19:54 40.783494 -111.996539 356 4235ft 120kts
15-Aug-18 19:55 40.840045 -112.016387 320 6460ft 228kts
15-Aug-18 19:56 40.886863 -112.088678 309 9015ft 269kts
15-Aug-18 19:57 40.925354 -112.155290 305 11703ft 279kts
15-Aug-18 19:58 40.971252 -112.240750 304 14933ft 291kts
15-Aug-18 19:59 41.027381 -112.346033 304 18367ft 307kts
15-Aug-18 20:00 41.070983 -112.422514 316 20639ft 321kts
15-Aug-18 20:01 41.151777 -112.494809 326 21689ft 384kts
15-Aug-18 20:02 41.243444 -112.584471 321 22741ft 425kts
15-Aug-18 20:03 41.329554 -112.694483 310 24542ft 435kts
15-Aug-18 20:04 41.411548 -112.815481 309 26216ft 443kts
15-Aug-18 20:05 41.493245 -112.940785 309 27717ft 452kts
15-Aug-18 20:06 41.576209 -113.068673 308 29172ft 457kts
15-Aug-18 20:07 41.658743 -113.195852 308 31031ft 451kts
15-Aug-18 20:08 41.741043 -113.322876 307 32106ft 452kts
15-Aug-18 20:09 41.822785 -113.449913 307 32107ft 449kts
15-Aug-18 20:10 41.904301 -113.577216 306 32103ft 450kts
15-Aug-18 20:11 41.985928 -113.704901 306 32099ft 451kts
15-Aug-18 20:12 42.067115 -113.832808 306 32089ft 451kts
15-Aug-18 20:13 42.148514 -113.961921 306 32086ft 451kts
15-Aug-18 20:14 42.229614 -114.090446 306 32084ft 451kts
15-Aug-18 20:15 42.311087 -114.219321 306 32082ft 451kts
15-Aug-18 20:16 42.392522 -114.349225 306 32081ft 452kts
15-Aug-18 20:17 42.473051 -114.478472 306 31962ft 442kts
15-Aug-18 20:18 42.553329 -114.606066 307 28938ft 448kts
15-Aug-18 20:19 42.633125 -114.733884 308 26623ft 435kts
15-Aug-18 20:20 42.709820 -114.857423 308 24507ft 420kts
15-Aug-18 20:21 42.788021 -114.971780 312 22446ft 406kts
15-Aug-18 20:22 42.863641 -115.080124 312 20813ft 384kts
15-Aug-18 20:23 42.937267 -115.186320 312 18803ft 375kts
15-Aug-18 20:24 43.008262 -115.289243 312 16881ft 368kts
15-Aug-18 20:25 43.077731 -115.390780 312 14969ft 361kts
15-Aug-18 20:26 43.142764 -115.486108 313 13311ft 326kts
15-Aug-18 20:27 43.202650 -115.573730 313 11807ft 308kts
15-Aug-18 20:28 43.261179 -115.659626 313 10328ft 303kts
15-Aug-18 20:29 43.319448 -115.737127 317 9218ft 278kts
15-Aug-18 20:30 43.369762 -115.801490 316 8829ft 219kts
15-Aug-18 20:31 43.410974 -115.854597 316 8115ft 184kts
15-Aug-18 20:32 43.448054 -115.902596 316 7011ft 182kts
15-Aug-18 20:33 43.476287 -115.959603 294 6299ft 182kts
15-Aug-18 20:34 43.496244 -116.020808 295 5759ft 163kts
15-Aug-18 20:35 43.515318 -116.076372 295 5358ft 161kts
15-Aug-18 20:36 43.535197 -116.134268 295 3955ft 158kts
15-Aug-18 20:37 43.554287 -116.190190 294 3104ft 165kts
15-Aug-18 20:38 43.567481 -116.228790 305 2879ft 18kts
15-Aug-18 20:39 43.567537 -116.225308 115 2879ft 11kts
15-Aug-18 20:40 43.566233 -116.219817 101 2879ft 22kts
15-Aug-18 20:41 43.567239 -116.218368 268 2879ft 2kts
15-Aug-18 20:42 43.567238 -116.218497 269 2879ft 0kts
15-Aug-18 20:43 43.567238 -116.218497 269 2879ft 0kts
15-Aug-18 20:44 43.567238 -116.218497 269 2879ft 0kts
15-Aug-18 20:45 43.567238 -116.218497 269 2879ft 0kts
15-Aug-18 20:46 43.567238 -116.218497 269 2879ft 0kts
15-Aug-18 20:47 43.567238 -116.218497 269 2879ft 0kts
15-Aug-18 20:48 43.567238 -116.218497 269 2879ft 0kts

Navigation Log

Ident Type
Flight plan parsing failed, navigation log unavailable